Detall de PIREP

Printer-friendly versionPDF version

[2015/05/09 14:38:00]
Flight IATA:CT1061
Pilot Number:012
Company ICAO:CAT
Aircraft Type:DC85/A
PAX:132
Aircraft Registration:PAX
Departing Airport: LEAL
Destination Airport: LICJ
Alternate Airport:LIRA
Online: VATSIM
Route:MITOS UN851 MHN ARSIK UM731 TEKSA UM732 CAR UM871 KAPIL
Flight Level:F350
No Slew and time accel
No pause
Crash detect
Detect pilot in Cockpit between each 30 and 45 minutes
14:38 Zero fuel Weight: 165947 Lbs, Fuel Weight: 48101 Lbs
14:38 VATSIM:LEAL 091400Z 07012KT 030V100 9999 FEW008 23/17 Q1023 NOSIG
14:38 VATSIM:LICJ 091420Z 29009KT 9999 FEW018 20/16 Q1017
14:38 ALMOGAVERS ROUTE
14:59 Parking Brakes off
15:05 Take-off
15:05 Take off Weight: 212589 Lbs
15:05 Wind: 075º @ 011 Knots Heading: 098º
15:05 POS N38º 16´ 55´´ W000º 33´ 23´´
15:05 Flaps:2 at 167 Knots
15:05 Gear Up: 171 Knots
15:06 Flaps:1 at 178 Knots
15:06 Flaps:0 at 197 Knots
15:20 Wind:289º@070 Knots Heading: 062º Ground Speed: 497 Knots Altitude 34288 ft
15:35 Wind:291º@084 Knots Heading: 054º Ground Speed: 525 Knots Altitude 34281 ft
15:50 Wind:298º@074 Knots Heading: 068º Ground Speed: 526 Knots Altitude 34160 ft
16:01 TOC
16:01 Fuel Weight: 33140 Lb
16:05 Wind:292º@085 Knots Heading: 164º Ground Speed: 526 Knots Altitude 35121 ft
16:12 TOD
16:12 Fuel Weight: 30913 Lb
16:20 Wind:288º@032 Knots Heading: 110º Ground Speed: 418 Knots Altitude 20433 ft
16:35 Wind:335º@021 Knots Heading: 103º Ground Speed: 274 Knots Altitude 7811 ft
16:37 Flaps:1 at 236 Knots
16:39 Flaps:2 at 235 Knots
16:44 Gear Down: 168 Knots
16:44 Flaps:3 at 156 Knots
16:45 Flaps:4 at 150 Knots
16:49 TouchDown:Rate -295 ft/min Speed: 130 Knots
16:50 Wind:287º@005 Knots Heading: 248º Ground Speed: 057 Knots Altitude 072 ft
16:50 Flaps:3 at 49 Knots
16:50 Flaps:0 at 33 Knots
16:50 VATSIM:LICJ 091620Z 28004KT 9999 FEW023 20/16 Q1017
16:50 Land
16:50 Wind:287º@005 Knots
16:50 Heading: 273º
16:50 Flight Duration: 01:45
16:50 Landing Weight: 192573 Lbs
16:50 POS N38º 10´ 48´´ E013º 06´ 11´´
16:52 Parking brakes on
16:52 Block to Block Duration: 01:53
16:52 Final Fuel: 26355 Lbls
16:52 Spent Fuel: 21746 Lbls
16:52 Flight Length: 757 NM
16:52 TOD Land Length: 207 NM

Exportar CSV

Powered by Drupal - Modified by Danger4k